sensor_id;sensor_type;location;lat;lon;timestamp;P1;durP1;ratioP1;P2;durP2;ratioP2
11139;SDS011;5624;49.388;11.350;2022-12-13T00:00:12;26.97;;;18.37;;
11139;SDS011;5624;49.388;11.350;2022-12-13T00:02:42;28.90;;;17.90;;
11139;SDS011;5624;49.388;11.350;2022-12-13T00:05:09;27.93;;;17.23;;
11139;SDS011;5624;49.388;11.350;2022-12-13T00:07:35;24.17;;;17.37;;
11139;SDS011;5624;49.388;11.350;2022-12-13T00:10:01;24.43;;;15.80;;
11139;SDS011;5624;49.388;11.350;2022-12-13T00:12:27;24.13;;;14.70;;
11139;SDS011;5624;49.388;11.350;2022-12-13T00:14:52;22.17;;;15.23;;
11139;SDS011;5624;49.388;11.350;2022-12-13T00:17:18;21.70;;;14.73;;
11139;SDS011;5624;49.388;11.350;2022-12-13T00:19:45;23.50;;;14.10;;
11139;SDS011;5624;49.388;11.350;2022-12-13T00:22:11;23.03;;;15.50;;
11139;SDS011;5624;49.388;11.350;2022-12-13T00:24:37;21.77;;;14.70;;
11139;SDS011;5624;49.388;11.350;2022-12-13T00:27:03;23.50;;;14.97;;
11139;SDS011;5624;49.388;11.350;2022-12-13T00:29:28;22.27;;;15.10;;
11139;SDS011;5624;49.388;11.350;2022-12-13T00:31:54;28.10;;;16.67;;
11139;SDS011;5624;49.388;11.350;2022-12-13T00:34:20;23.50;;;16.10;;
11139;SDS011;5624;49.388;11.350;2022-12-13T00:36:45;24.03;;;15.07;;
11139;SDS011;5624;49.388;11.350;2022-12-13T00:39:12;25.17;;;15.50;;
11139;SDS011;5624;49.388;11.350;2022-12-13T00:41:40;24.50;;;14.87;;
11139;SDS011;5624;49.388;11.350;2022-12-13T00:44:08;25.27;;;14.50;;
11139;SDS011;5624;49.388;11.350;2022-12-13T00:46:35;25.40;;;15.30;;
11139;SDS011;5624;49.388;11.350;2022-12-13T00:49:01;24.40;;;14.93;;
11139;SDS011;5624;49.388;11.350;2022-12-13T00:51:28;24.53;;;15.17;;
11139;SDS011;5624;49.388;11.350;2022-12-13T00:53:55;26.30;;;14.83;;
11139;SDS011;5624;49.388;11.350;2022-12-13T00:56:22;20.40;;;14.33;;
11139;SDS011;5624;49.388;11.350;2022-12-13T00:58:50;19.83;;;13.17;;
11139;SDS011;5624;49.388;11.350;2022-12-13T01:01:18;22.30;;;13.77;;
11139;SDS011;5624;49.388;11.350;2022-12-13T01:03:46;23.47;;;13.77;;
11139;SDS011;5624;49.388;11.350;2022-12-13T01:06:16;22.40;;;12.83;;
11139;SDS011;5624;49.388;11.350;2022-12-13T01:08:44;20.07;;;12.90;;
11139;SDS011;5624;49.388;11.350;2022-12-13T01:11:10;21.97;;;14.03;;
11139;SDS011;5624;49.388;11.350;2022-12-13T01:13:37;19.10;;;13.10;;
11139;SDS011;5624;49.388;11.350;2022-12-13T01:16:04;23.10;;;13.80;;
11139;SDS011;5624;49.388;11.350;2022-12-13T01:18:31;20.03;;;13.20;;
11139;SDS011;5624;49.388;11.350;2022-12-13T01:20:58;21.53;;;12.23;;
11139;SDS011;5624;49.388;11.350;2022-12-13T01:23:26;18.50;;;12.57;;
11139;SDS011;5624;49.388;11.350;2022-12-13T01:25:52;23.63;;;13.57;;
11139;SDS011;5624;49.388;11.350;2022-12-13T01:28:18;21.07;;;13.00;;
11139;SDS011;5624;49.388;11.350;2022-12-13T01:30:44;18.27;;;12.33;;
11139;SDS011;5624;49.388;11.350;2022-12-13T01:33:17;21.47;;;13.67;;
11139;SDS011;5624;49.388;11.350;2022-12-13T01:35:42;20.73;;;13.13;;
11139;SDS011;5624;49.388;11.350;2022-12-13T01:38:08;21.10;;;13.30;;
11139;SDS011;5624;49.388;11.350;2022-12-13T01:40:33;20.27;;;13.03;;
11139;SDS011;5624;49.388;11.350;2022-12-13T01:42:59;19.60;;;12.60;;
11139;SDS011;5624;49.388;11.350;2022-12-13T01:45:26;22.20;;;12.37;;
11139;SDS011;5624;49.388;11.350;2022-12-13T01:48:02;20.00;;;12.60;;
11139;SDS011;5624;49.388;11.350;2022-12-13T01:50:34;19.73;;;12.03;;
11139;SDS011;5624;49.388;11.350;2022-12-13T01:53:03;18.87;;;11.20;;
11139;SDS011;5624;49.388;11.350;2022-12-13T01:55:32;18.43;;;11.50;;
11139;SDS011;5624;49.388;11.350;2022-12-13T01:58:00;23.00;;;11.23;;
11139;SDS011;5624;49.388;11.350;2022-12-13T02:00:27;17.27;;;12.00;;
11139;SDS011;5624;49.388;11.350;2022-12-13T02:02:53;18.07;;;11.63;;
11139;SDS011;5624;49.388;11.350;2022-12-13T02:05:24;18.10;;;11.53;;
11139;SDS011;5624;49.388;11.350;2022-12-13T02:07:56;20.30;;;13.17;;
11139;SDS011;5624;49.388;11.350;2022-12-13T02:10:23;17.73;;;11.50;;
11139;SDS011;5624;49.388;11.350;2022-12-13T02:12:50;17.17;;;12.00;;
11139;SDS011;5624;49.388;11.350;2022-12-13T02:15:16;16.43;;;11.57;;
11139;SDS011;5624;49.388;11.350;2022-12-13T02:23:28;20.63;;;12.23;;
11139;SDS011;5624;49.388;11.350;2022-12-13T02:28:44;23.53;;;12.93;;
11139;SDS011;5624;49.388;11.350;2022-12-13T02:34:05;21.27;;;12.60;;
11139;SDS011;5624;49.388;11.350;2022-12-13T02:36:40;19.27;;;11.60;;
11139;SDS011;5624;49.388;11.350;2022-12-13T02:39:17;18.10;;;11.70;;
11139;SDS011;5624;49.388;11.350;2022-12-13T02:44:21;18.73;;;12.87;;
11139;SDS011;5624;49.388;11.350;2022-12-13T02:46:57;23.70;;;12.93;;
11139;SDS011;5624;49.388;11.350;2022-12-13T02:49:28;19.20;;;12.13;;
11139;SDS011;5624;49.388;11.350;2022-12-13T02:51:57;18.83;;;11.97;;
11139;SDS011;5624;49.388;11.350;2022-12-13T02:54:24;19.30;;;12.07;;
11139;SDS011;5624;49.388;11.350;2022-12-13T02:56:53;20.97;;;13.43;;
11139;SDS011;5624;49.388;11.350;2022-12-13T02:59:20;16.10;;;11.80;;
11139;SDS011;5624;49.388;11.350;2022-12-13T03:10:45;18.83;;;12.47;;
11139;SDS011;5624;49.388;11.350;2022-12-13T03:13:33;22.03;;;13.53;;
11139;SDS011;5624;49.388;11.350;2022-12-13T03:16:14;19.53;;;13.27;;
11139;SDS011;5624;49.388;11.350;2022-12-13T03:18:51;24.23;;;13.97;;
11139;SDS011;5624;49.388;11.350;2022-12-13T03:21:21;21.53;;;13.50;;
11139;SDS011;5624;49.388;11.350;2022-12-13T03:23:47;22.73;;;14.07;;
11139;SDS011;5624;49.388;11.350;2022-12-13T03:26:17;23.33;;;14.17;;
11139;SDS011;5624;49.388;11.350;2022-12-13T03:28:46;21.43;;;13.23;;
11139;SDS011;5624;49.388;11.350;2022-12-13T03:31:12;24.27;;;14.83;;
11139;SDS011;5624;49.388;11.350;2022-12-13T03:33:38;23.40;;;14.73;;
11139;SDS011;5624;49.388;11.350;2022-12-13T03:36:04;21.83;;;12.83;;
11139;SDS011;5624;49.388;11.350;2022-12-13T03:38:30;22.17;;;14.60;;
11139;SDS011;5624;49.388;11.350;2022-12-13T03:40:57;20.30;;;13.23;;
11139;SDS011;5624;49.388;11.350;2022-12-13T03:43:25;20.67;;;14.93;;
11139;SDS011;5624;49.388;11.350;2022-12-13T03:45:52;21.23;;;14.70;;
11139;SDS011;5624;49.388;11.350;2022-12-13T03:48:18;20.17;;;13.47;;
11139;SDS011;5624;49.388;11.350;2022-12-13T03:50:45;22.50;;;15.33;;
11139;SDS011;5624;49.388;11.350;2022-12-13T03:53:11;22.50;;;14.30;;
11139;SDS011;5624;49.388;11.350;2022-12-13T03:55:36;22.93;;;14.93;;
11139;SDS011;5624;49.388;11.350;2022-12-13T03:58:02;25.10;;;14.43;;
11139;SDS011;5624;49.388;11.350;2022-12-13T04:00:28;21.90;;;14.27;;
11139;SDS011;5624;49.388;11.350;2022-12-13T04:02:53;24.97;;;14.67;;
11139;SDS011;5624;49.388;11.350;2022-12-13T04:05:19;25.33;;;16.07;;
11139;SDS011;5624;49.388;11.350;2022-12-13T04:07:44;21.87;;;15.23;;
11139;SDS011;5624;49.388;11.350;2022-12-13T04:10:10;24.90;;;14.90;;
11139;SDS011;5624;49.388;11.350;2022-12-13T04:12:36;24.33;;;14.70;;
11139;SDS011;5624;49.388;11.350;2022-12-13T04:15:20;21.03;;;14.43;;
11139;SDS011;5624;49.388;11.350;2022-12-13T04:17:46;25.63;;;15.57;;
11139;SDS011;5624;49.388;11.350;2022-12-13T04:20:11;24.07;;;14.73;;
11139;SDS011;5624;49.388;11.350;2022-12-13T04:22:37;23.07;;;15.60;;
11139;SDS011;5624;49.388;11.350;2022-12-13T04:25:03;25.13;;;15.23;;
11139;SDS011;5624;49.388;11.350;2022-12-13T04:27:29;23.37;;;15.47;;
11139;SDS011;5624;49.388;11.350;2022-12-13T04:29:55;23.80;;;15.87;;
11139;SDS011;5624;49.388;11.350;2022-12-13T04:32:21;23.80;;;15.63;;
11139;SDS011;5624;49.388;11.350;2022-12-13T04:34:46;24.47;;;14.93;;
11139;SDS011;5624;49.388;11.350;2022-12-13T04:37:12;23.70;;;15.87;;
11139;SDS011;5624;49.388;11.350;2022-12-13T04:39:38;24.73;;;15.93;;
11139;SDS011;5624;49.388;11.350;2022-12-13T04:42:03;25.60;;;15.37;;
11139;SDS011;5624;49.388;11.350;2022-12-13T04:44:29;26.77;;;16.07;;
11139;SDS011;5624;49.388;11.350;2022-12-13T04:46:55;26.63;;;15.77;;
11139;SDS011;5624;49.388;11.350;2022-12-13T04:49:21;25.27;;;15.83;;
11139;SDS011;5624;49.388;11.350;2022-12-13T04:51:47;21.87;;;14.53;;
11139;SDS011;5624;49.388;11.350;2022-12-13T04:54:12;27.77;;;15.63;;
11139;SDS011;5624;49.388;11.350;2022-12-13T04:56:38;26.80;;;16.03;;
11139;SDS011;5624;49.388;11.350;2022-12-13T04:59:04;24.00;;;15.67;;
11139;SDS011;5624;49.388;11.350;2022-12-13T05:01:29;25.50;;;15.07;;
11139;SDS011;5624;49.388;11.350;2022-12-13T05:03:55;24.87;;;13.53;;
11139;SDS011;5624;49.388;11.350;2022-12-13T05:06:21;25.93;;;15.00;;
11139;SDS011;5624;49.388;11.350;2022-12-13T05:08:46;27.80;;;15.83;;
11139;SDS011;5624;49.388;11.350;2022-12-13T05:11:12;24.53;;;15.23;;
11139;SDS011;5624;49.388;11.350;2022-12-13T05:13:38;26.97;;;15.97;;
11139;SDS011;5624;49.388;11.350;2022-12-13T05:16:04;24.57;;;16.37;;
11139;SDS011;5624;49.388;11.350;2022-12-13T05:18:31;33.03;;;19.50;;
11139;SDS011;5624;49.388;11.350;2022-12-13T05:21:04;32.70;;;20.30;;
11139;SDS011;5624;49.388;11.350;2022-12-13T05:23:31;32.20;;;18.07;;
11139;SDS011;5624;49.388;11.350;2022-12-13T05:25:58;34.87;;;18.57;;
11139;SDS011;5624;49.388;11.350;2022-12-13T05:28:24;25.03;;;16.80;;
11139;SDS011;5624;49.388;11.350;2022-12-13T05:30:52;27.67;;;16.63;;
11139;SDS011;5624;49.388;11.350;2022-12-13T05:33:19;31.13;;;16.13;;
11139;SDS011;5624;49.388;11.350;2022-12-13T05:35:45;26.97;;;16.93;;
11139;SDS011;5624;49.388;11.350;2022-12-13T05:38:11;28.93;;;16.23;;
11139;SDS011;5624;49.388;11.350;2022-12-13T05:40:37;27.03;;;16.17;;
11139;SDS011;5624;49.388;11.350;2022-12-13T05:43:03;23.30;;;15.43;;
11139;SDS011;5624;49.388;11.350;2022-12-13T05:45:29;24.90;;;15.80;;
11139;SDS011;5624;49.388;11.350;2022-12-13T05:47:56;24.20;;;15.70;;
11139;SDS011;5624;49.388;11.350;2022-12-13T05:50:21;20.57;;;14.90;;
11139;SDS011;5624;49.388;11.350;2022-12-13T05:52:48;26.07;;;15.87;;
11139;SDS011;5624;49.388;11.350;2022-12-13T05:55:14;25.17;;;14.87;;
11139;SDS011;5624;49.388;11.350;2022-12-13T05:57:39;25.70;;;16.43;;
11139;SDS011;5624;49.388;11.350;2022-12-13T06:00:06;26.20;;;17.17;;
11139;SDS011;5624;49.388;11.350;2022-12-13T06:02:37;24.40;;;16.00;;
11139;SDS011;5624;49.388;11.350;2022-12-13T06:05:03;21.80;;;15.50;;
11139;SDS011;5624;49.388;11.350;2022-12-13T06:07:30;23.87;;;15.80;;
11139;SDS011;5624;49.388;11.350;2022-12-13T06:09:55;24.77;;;16.20;;
11139;SDS011;5624;49.388;11.350;2022-12-13T06:12:21;26.93;;;16.47;;
11139;SDS011;5624;49.388;11.350;2022-12-13T06:14:47;24.03;;;15.57;;
11139;SDS011;5624;49.388;11.350;2022-12-13T06:17:12;25.20;;;16.13;;
11139;SDS011;5624;49.388;11.350;2022-12-13T06:19:38;27.87;;;17.37;;
11139;SDS011;5624;49.388;11.350;2022-12-13T06:22:03;25.63;;;17.17;;
11139;SDS011;5624;49.388;11.350;2022-12-13T06:24:29;27.70;;;16.93;;
11139;SDS011;5624;49.388;11.350;2022-12-13T06:26:55;27.63;;;16.77;;
11139;SDS011;5624;49.388;11.350;2022-12-13T06:29:21;27.30;;;16.43;;
11139;SDS011;5624;49.388;11.350;2022-12-13T06:31:47;26.77;;;16.57;;
11139;SDS011;5624;49.388;11.350;2022-12-13T06:34:22;28.57;;;16.53;;
11139;SDS011;5624;49.388;11.350;2022-12-13T06:36:48;28.53;;;16.30;;
11139;SDS011;5624;49.388;11.350;2022-12-13T06:39:13;26.70;;;15.93;;
11139;SDS011;5624;49.388;11.350;2022-12-13T06:41:42;27.10;;;16.73;;
11139;SDS011;5624;49.388;11.350;2022-12-13T06:44:08;26.10;;;16.80;;
11139;SDS011;5624;49.388;11.350;2022-12-13T06:46:33;24.43;;;16.67;;
11139;SDS011;5624;49.388;11.350;2022-12-13T06:48:59;26.17;;;17.83;;
11139;SDS011;5624;49.388;11.350;2022-12-13T06:51:25;24.23;;;16.60;;
11139;SDS011;5624;49.388;11.350;2022-12-13T06:53:51;26.57;;;16.50;;
11139;SDS011;5624;49.388;11.350;2022-12-13T06:56:17;24.73;;;15.77;;
11139;SDS011;5624;49.388;11.350;2022-12-13T06:58:43;27.63;;;16.73;;
11139;SDS011;5624;49.388;11.350;2022-12-13T07:01:09;25.83;;;15.60;;
11139;SDS011;5624;49.388;11.350;2022-12-13T07:03:42;25.60;;;15.80;;
11139;SDS011;5624;49.388;11.350;2022-12-13T07:08:38;26.10;;;15.17;;
11139;SDS011;5624;49.388;11.350;2022-12-13T07:11:12;26.33;;;16.13;;
11139;SDS011;5624;49.388;11.350;2022-12-13T07:13:39;25.57;;;17.03;;
11139;SDS011;5624;49.388;11.350;2022-12-13T07:16:05;25.20;;;16.13;;
11139;SDS011;5624;49.388;11.350;2022-12-13T07:18:31;25.67;;;15.70;;
11139;SDS011;5624;49.388;11.350;2022-12-13T07:20:57;23.27;;;15.70;;
11139;SDS011;5624;49.388;11.350;2022-12-13T07:23:23;25.43;;;17.03;;
11139;SDS011;5624;49.388;11.350;2022-12-13T07:25:52;25.43;;;17.17;;
11139;SDS011;5624;49.388;11.350;2022-12-13T07:28:19;25.13;;;16.00;;
11139;SDS011;5624;49.388;11.350;2022-12-13T07:30:45;24.33;;;16.17;;
11139;SDS011;5624;49.388;11.350;2022-12-13T07:33:12;26.03;;;16.40;;
11139;SDS011;5624;49.388;11.350;2022-12-13T07:35:38;25.10;;;15.63;;
11139;SDS011;5624;49.388;11.350;2022-12-13T07:38:08;27.80;;;17.63;;
11139;SDS011;5624;49.388;11.350;2022-12-13T07:40:35;27.90;;;17.77;;
11139;SDS011;5624;49.388;11.350;2022-12-13T07:43:02;25.83;;;17.30;;
11139;SDS011;5624;49.388;11.350;2022-12-13T07:45:28;25.50;;;16.40;;
11139;SDS011;5624;49.388;11.350;2022-12-13T07:47:54;21.20;;;15.20;;
11139;SDS011;5624;49.388;11.350;2022-12-13T07:50:20;24.47;;;16.13;;
11139;SDS011;5624;49.388;11.350;2022-12-13T07:52:49;26.67;;;15.63;;
11139;SDS011;5624;49.388;11.350;2022-12-13T07:55:15;24.67;;;15.20;;
11139;SDS011;5624;49.388;11.350;2022-12-13T07:57:42;25.40;;;16.60;;
11139;SDS011;5624;49.388;11.350;2022-12-13T08:00:08;27.73;;;17.67;;
11139;SDS011;5624;49.388;11.350;2022-12-13T08:02:34;38.13;;;21.80;;
11139;SDS011;5624;49.388;11.350;2022-12-13T08:05:00;26.67;;;16.43;;
11139;SDS011;5624;49.388;11.350;2022-12-13T08:07:26;24.40;;;16.87;;
11139;SDS011;5624;49.388;11.350;2022-12-13T08:09:51;21.00;;;14.97;;
11139;SDS011;5624;49.388;11.350;2022-12-13T08:12:17;22.33;;;14.87;;
11139;SDS011;5624;49.388;11.350;2022-12-13T08:14:42;24.83;;;15.57;;
11139;SDS011;5624;49.388;11.350;2022-12-13T08:17:08;21.43;;;15.57;;
11139;SDS011;5624;49.388;11.350;2022-12-13T08:19:34;20.43;;;13.73;;
11139;SDS011;5624;49.388;11.350;2022-12-13T08:21:59;23.27;;;14.63;;
11139;SDS011;5624;49.388;11.350;2022-12-13T08:24:26;22.43;;;15.47;;
11139;SDS011;5624;49.388;11.350;2022-12-13T08:26:54;24.53;;;15.20;;
11139;SDS011;5624;49.388;11.350;2022-12-13T08:29:24;24.03;;;14.93;;
11139;SDS011;5624;49.388;11.350;2022-12-13T08:31:50;22.80;;;15.30;;
11139;SDS011;5624;49.388;11.350;2022-12-13T08:34:16;24.17;;;14.53;;
11139;SDS011;5624;49.388;11.350;2022-12-13T08:36:41;22.10;;;14.50;;
11139;SDS011;5624;49.388;11.350;2022-12-13T08:39:07;20.20;;;14.87;;
11139;SDS011;5624;49.388;11.350;2022-12-13T08:41:33;23.13;;;13.90;;
11139;SDS011;5624;49.388;11.350;2022-12-13T08:43:58;19.20;;;13.37;;
11139;SDS011;5624;49.388;11.350;2022-12-13T08:46:24;17.33;;;12.67;;
11139;SDS011;5624;49.388;11.350;2022-12-13T08:48:51;21.63;;;14.13;;
11139;SDS011;5624;49.388;11.350;2022-12-13T08:51:18;21.77;;;13.80;;
11139;SDS011;5624;49.388;11.350;2022-12-13T08:53:48;18.27;;;13.17;;
11139;SDS011;5624;49.388;11.350;2022-12-13T08:56:15;36.33;;;23.07;;
11139;SDS011;5624;49.388;11.350;2022-12-13T08:58:42;24.47;;;16.27;;
11139;SDS011;5624;49.388;11.350;2022-12-13T09:01:09;22.67;;;15.93;;
11139;SDS011;5624;49.388;11.350;2022-12-13T09:03:35;17.17;;;11.90;;
11139;SDS011;5624;49.388;11.350;2022-12-13T09:06:11;18.03;;;12.13;;
11139;SDS011;5624;49.388;11.350;2022-12-13T09:08:39;21.20;;;13.57;;
11139;SDS011;5624;49.388;11.350;2022-12-13T09:11:06;17.40;;;10.93;;
11139;SDS011;5624;49.388;11.350;2022-12-13T09:13:33;17.43;;;12.70;;
11139;SDS011;5624;49.388;11.350;2022-12-13T09:16:05;16.90;;;12.20;;
11139;SDS011;5624;49.388;11.350;2022-12-13T09:18:33;18.13;;;11.80;;
11139;SDS011;5624;49.388;11.350;2022-12-13T09:20:58;18.10;;;10.70;;
11139;SDS011;5624;49.388;11.350;2022-12-13T09:23:24;18.77;;;10.37;;
11139;SDS011;5624;49.388;11.350;2022-12-13T09:25:56;21.17;;;11.60;;
11139;SDS011;5624;49.388;11.350;2022-12-13T09:28:24;18.20;;;12.10;;
11139;SDS011;5624;49.388;11.350;2022-12-13T09:30:50;16.87;;;9.10;;
11139;SDS011;5624;49.388;11.350;2022-12-13T09:33:16;18.60;;;8.90;;
11139;SDS011;5624;49.388;11.350;2022-12-13T09:35:42;13.77;;;8.17;;
11139;SDS011;5624;49.388;11.350;2022-12-13T09:38:08;14.73;;;9.57;;
11139;SDS011;5624;49.388;11.350;2022-12-13T09:40:34;12.53;;;7.97;;
11139;SDS011;5624;49.388;11.350;2022-12-13T09:43:02;14.37;;;8.57;;
11139;SDS011;5624;49.388;11.350;2022-12-13T09:45:29;18.23;;;10.57;;
11139;SDS011;5624;49.388;11.350;2022-12-13T09:47:57;18.70;;;8.10;;
11139;SDS011;5624;49.388;11.350;2022-12-13T09:50:31;15.33;;;8.10;;
11139;SDS011;5624;49.388;11.350;2022-12-13T09:52:59;11.40;;;7.57;;
11139;SDS011;5624;49.388;11.350;2022-12-13T09:55:35;15.50;;;8.13;;
11139;SDS011;5624;49.388;11.350;2022-12-13T09:58:07;12.80;;;7.83;;
11139;SDS011;5624;49.388;11.350;2022-12-13T10:00:38;17.17;;;7.83;;
11139;SDS011;5624;49.388;11.350;2022-12-13T10:03:09;14.13;;;7.17;;
11139;SDS011;5624;49.388;11.350;2022-12-13T10:05:37;11.97;;;7.47;;
11139;SDS011;5624;49.388;11.350;2022-12-13T10:08:22;11.10;;;6.73;;
11139;SDS011;5624;49.388;11.350;2022-12-13T10:10:53;12.73;;;7.20;;
11139;SDS011;5624;49.388;11.350;2022-12-13T10:18:55;12.27;;;6.13;;
11139;SDS011;5624;49.388;11.350;2022-12-13T10:21:25;9.57;;;5.83;;
11139;SDS011;5624;49.388;11.350;2022-12-13T10:23:54;12.80;;;6.20;;
11139;SDS011;5624;49.388;11.350;2022-12-13T10:26:25;18.00;;;6.00;;
11139;SDS011;5624;49.388;11.350;2022-12-13T10:29:02;9.57;;;5.73;;
11139;SDS011;5624;49.388;11.350;2022-12-13T10:31:37;11.53;;;6.53;;
11139;SDS011;5624;49.388;11.350;2022-12-13T10:34:23;10.73;;;5.87;;
11139;SDS011;5624;49.388;11.350;2022-12-13T10:36:52;8.67;;;4.47;;
11139;SDS011;5624;49.388;11.350;2022-12-13T10:39:34;6.47;;;3.77;;
11139;SDS011;5624;49.388;11.350;2022-12-13T10:42:01;6.23;;;4.30;;
11139;SDS011;5624;49.388;11.350;2022-12-13T10:44:30;6.30;;;4.60;;
11139;SDS011;5624;49.388;11.350;2022-12-13T10:49:36;10.57;;;4.73;;
11139;SDS011;5624;49.388;11.350;2022-12-13T10:52:21;5.27;;;3.67;;
11139;SDS011;5624;49.388;11.350;2022-12-13T10:54:47;8.23;;;4.70;;
11139;SDS011;5624;49.388;11.350;2022-12-13T10:57:14;7.83;;;4.27;;
11139;SDS011;5624;49.388;11.350;2022-12-13T10:59:42;9.47;;;5.03;;
11139;SDS011;5624;49.388;11.350;2022-12-13T11:04:53;8.53;;;5.03;;
11139;SDS011;5624;49.388;11.350;2022-12-13T11:07:23;10.40;;;4.97;;
11139;SDS011;5624;49.388;11.350;2022-12-13T11:09:52;10.17;;;4.70;;
11139;SDS011;5624;49.388;11.350;2022-12-13T11:12:24;7.70;;;3.90;;
11139;SDS011;5624;49.388;11.350;2022-12-13T11:15:03;8.57;;;5.20;;
11139;SDS011;5624;49.388;11.350;2022-12-13T11:17:31;6.33;;;4.50;;
11139;SDS011;5624;49.388;11.350;2022-12-13T11:20:01;5.97;;;3.73;;
11139;SDS011;5624;49.388;11.350;2022-12-13T11:22:34;6.53;;;3.90;;
11139;SDS011;5624;49.388;11.350;2022-12-13T11:25:06;7.50;;;4.20;;
11139;SDS011;5624;49.388;11.350;2022-12-13T11:31:01;7.10;;;4.03;;
11139;SDS011;5624;49.388;11.350;2022-12-13T11:44:15;6.47;;;4.80;;
11139;SDS011;5624;49.388;11.350;2022-12-13T11:46:53;5.67;;;4.60;;
11139;SDS011;5624;49.388;11.350;2022-12-13T11:52:02;5.83;;;3.83;;
11139;SDS011;5624;49.388;11.350;2022-12-13T11:54:58;5.47;;;3.60;;
11139;SDS011;5624;49.388;11.350;2022-12-13T11:58:05;4.73;;;3.40;;
11139;SDS011;5624;49.388;11.350;2022-12-13T12:00:40;8.57;;;4.53;;
11139;SDS011;5624;49.388;11.350;2022-12-13T12:03:41;10.43;;;5.17;;
11139;SDS011;5624;49.388;11.350;2022-12-13T12:06:17;8.63;;;4.63;;
11139;SDS011;5624;49.388;11.350;2022-12-13T12:08:50;11.47;;;5.40;;
11139;SDS011;5624;49.388;11.350;2022-12-13T12:16:53;14.73;;;8.40;;
11139;SDS011;5624;49.388;11.350;2022-12-13T12:19:21;8.40;;;4.63;;
11139;SDS011;5624;49.388;11.350;2022-12-13T12:21:54;19.90;;;7.60;;
11139;SDS011;5624;49.388;11.350;2022-12-13T12:32:35;12.50;;;6.13;;
11139;SDS011;5624;49.388;11.350;2022-12-13T12:37:58;7.70;;;5.37;;
11139;SDS011;5624;49.388;11.350;2022-12-13T12:47:39;5.53;;;3.93;;
11139;SDS011;5624;49.388;11.350;2022-12-13T13:04:00;7.23;;;5.60;;
11139;SDS011;5624;49.388;11.350;2022-12-13T13:06:34;9.20;;;4.80;;
11139;SDS011;5624;49.388;11.350;2022-12-13T13:09:05;7.83;;;4.03;;
11139;SDS011;5624;49.388;11.350;2022-12-13T13:11:36;9.30;;;3.90;;
11139;SDS011;5624;49.388;11.350;2022-12-13T13:14:46;8.33;;;4.43;;
11139;SDS011;5624;49.388;11.350;2022-12-13T13:16:55;13.73;;;5.47;;
11139;SDS011;5624;49.388;11.350;2022-12-13T13:19:48;8.97;;;4.60;;
11139;SDS011;5624;49.388;11.350;2022-12-13T13:22:36;8.73;;;4.80;;
11139;SDS011;5624;49.388;11.350;2022-12-13T13:27:44;8.60;;;4.53;;
11139;SDS011;5624;49.388;11.350;2022-12-13T13:32:44;11.57;;;5.33;;
11139;SDS011;5624;49.388;11.350;2022-12-13T13:38:01;6.83;;;4.63;;
11139;SDS011;5624;49.388;11.350;2022-12-13T13:40:35;8.03;;;5.40;;
11139;SDS011;5624;49.388;11.350;2022-12-13T14:00:15;10.53;;;5.07;;
11139;SDS011;5624;49.388;11.350;2022-12-13T14:05:53;10.17;;;6.20;;
11139;SDS011;5624;49.388;11.350;2022-12-13T14:08:59;8.67;;;5.33;;
11139;SDS011;5624;49.388;11.350;2022-12-13T14:11:56;8.87;;;4.90;;
11139;SDS011;5624;49.388;11.350;2022-12-13T14:20:35;9.83;;;5.73;;
11139;SDS011;5624;49.388;11.350;2022-12-13T14:30:56;8.20;;;5.33;;
11139;SDS011;5624;49.388;11.350;2022-12-13T14:33:22;11.37;;;6.57;;
11139;SDS011;5624;49.388;11.350;2022-12-13T14:35:53;11.97;;;7.10;;
11139;SDS011;5624;49.388;11.350;2022-12-13T14:38:22;7.67;;;5.07;;
11139;SDS011;5624;49.388;11.350;2022-12-13T14:40:52;9.13;;;6.30;;
11139;SDS011;5624;49.388;11.350;2022-12-13T14:43:23;7.47;;;5.13;;
11139;SDS011;5624;49.388;11.350;2022-12-13T14:45:52;9.17;;;6.10;;
11139;SDS011;5624;49.388;11.350;2022-12-13T14:48:22;15.43;;;7.40;;
11139;SDS011;5624;49.388;11.350;2022-12-13T14:50:48;15.60;;;8.37;;
11139;SDS011;5624;49.388;11.350;2022-12-13T14:53:21;14.60;;;8.43;;
11139;SDS011;5624;49.388;11.350;2022-12-13T14:58:31;14.57;;;8.37;;
11139;SDS011;5624;49.388;11.350;2022-12-13T15:00:57;12.77;;;6.87;;
11139;SDS011;5624;49.388;11.350;2022-12-13T15:03:23;9.10;;;6.07;;
11139;SDS011;5624;49.388;11.350;2022-12-13T15:05:55;8.00;;;5.40;;
11139;SDS011;5624;49.388;11.350;2022-12-13T15:08:23;8.33;;;5.47;;
11139;SDS011;5624;49.388;11.350;2022-12-13T15:10:51;8.30;;;5.37;;
11139;SDS011;5624;49.388;11.350;2022-12-13T15:13:27;11.40;;;5.73;;
11139;SDS011;5624;49.388;11.350;2022-12-13T15:16:26;7.07;;;5.23;;
11139;SDS011;5624;49.388;11.350;2022-12-13T15:21:55;8.93;;;5.47;;
11139;SDS011;5624;49.388;11.350;2022-12-13T15:24:31;9.97;;;5.83;;
11139;SDS011;5624;49.388;11.350;2022-12-13T15:27:03;10.03;;;5.80;;
11139;SDS011;5624;49.388;11.350;2022-12-13T15:29:29;9.30;;;6.27;;
11139;SDS011;5624;49.388;11.350;2022-12-13T15:31:57;9.37;;;6.10;;
11139;SDS011;5624;49.388;11.350;2022-12-13T15:34:29;10.40;;;6.10;;
11139;SDS011;5624;49.388;11.350;2022-12-13T15:39:42;9.20;;;6.07;;
11139;SDS011;5624;49.388;11.350;2022-12-13T15:42:32;9.97;;;6.30;;
11139;SDS011;5624;49.388;11.350;2022-12-13T15:45:04;10.10;;;6.20;;
11139;SDS011;5624;49.388;11.350;2022-12-13T15:47:42;9.33;;;6.60;;
11139;SDS011;5624;49.388;11.350;2022-12-13T15:50:28;9.83;;;6.90;;
11139;SDS011;5624;49.388;11.350;2022-12-13T15:52:58;15.57;;;8.30;;
11139;SDS011;5624;49.388;11.350;2022-12-13T15:55:31;19.10;;;10.67;;
11139;SDS011;5624;49.388;11.350;2022-12-13T15:57:59;22.63;;;12.40;;
11139;SDS011;5624;49.388;11.350;2022-12-13T16:00:26;17.90;;;11.07;;
11139;SDS011;5624;49.388;11.350;2022-12-13T16:02:58;19.17;;;11.47;;
11139;SDS011;5624;49.388;11.350;2022-12-13T16:05:35;20.63;;;13.63;;
11139;SDS011;5624;49.388;11.350;2022-12-13T16:08:16;18.30;;;11.67;;
11139;SDS011;5624;49.388;11.350;2022-12-13T16:10:49;16.63;;;10.57;;
11139;SDS011;5624;49.388;11.350;2022-12-13T16:13:27;17.10;;;10.50;;
11139;SDS011;5624;49.388;11.350;2022-12-13T16:15:55;22.13;;;16.03;;
11139;SDS011;5624;49.388;11.350;2022-12-13T16:18:40;22.13;;;13.80;;
11139;SDS011;5624;49.388;11.350;2022-12-13T16:21:10;18.83;;;10.83;;
11139;SDS011;5624;49.388;11.350;2022-12-13T16:23:36;15.23;;;8.43;;
11139;SDS011;5624;49.388;11.350;2022-12-13T16:26:01;17.07;;;11.10;;
11139;SDS011;5624;49.388;11.350;2022-12-13T16:28:27;16.37;;;9.83;;
11139;SDS011;5624;49.388;11.350;2022-12-13T16:33:26;12.50;;;9.27;;
11139;SDS011;5624;49.388;11.350;2022-12-13T16:35:52;15.83;;;9.73;;
11139;SDS011;5624;49.388;11.350;2022-12-13T16:38:18;12.57;;;8.60;;
11139;SDS011;5624;49.388;11.350;2022-12-13T16:40:44;15.70;;;10.37;;
11139;SDS011;5624;49.388;11.350;2022-12-13T16:43:14;13.50;;;9.30;;
11139;SDS011;5624;49.388;11.350;2022-12-13T16:45:42;14.60;;;10.50;;
11139;SDS011;5624;49.388;11.350;2022-12-13T16:48:11;13.80;;;9.90;;
11139;SDS011;5624;49.388;11.350;2022-12-13T16:50:42;14.07;;;10.00;;
11139;SDS011;5624;49.388;11.350;2022-12-13T16:53:15;13.67;;;10.17;;
11139;SDS011;5624;49.388;11.350;2022-12-13T16:55:40;14.10;;;10.13;;
11139;SDS011;5624;49.388;11.350;2022-12-13T16:58:08;16.50;;;11.73;;
11139;SDS011;5624;49.388;11.350;2022-12-13T17:00:39;23.53;;;14.70;;
11139;SDS011;5624;49.388;11.350;2022-12-13T17:03:04;21.67;;;13.50;;